Startpagina
METAR-TAF:

METAR-TAF

Vliegvelden :

Ayacucho, Peru

breedte: 13-08S, lengte: 074-13W, hoogte: 2740 m

Actueel weer

Dit bericht is 14 uur en het 45 minuten geleden gemaakt, om 18:00 UTC
Wind 6 kt uit variabele richting
Temperatuur 22°C
Vochtigheid 27%
Druk 1029 hPa
Zicht 10 km of meer
Weinig wolken op 3500 ft
Weinig wolken op 4000 ft, Stapelwolken.

METAR: SPHO 241800Z VRB06KT 9999 FEW035 FEW040TCU 22/02 Q1029 RMK PP000

Tijdstip: 03:45 (08:45 UTC)

Verwachting

Dit bericht is 19 uur en het 45 minuten geleden gemaakt, om 13:00 UTC
Verwachting geldig van 24 om 12 UTC tot 25 om 12 UTC
Wind kt uit het noorden
Zicht 10 km of meer
geen wolken onder 1500 m en geen cumulonimbus

TAF: SPHO 241300Z 2412/2512 00000KT CAVOK TX25/2419Z TN09/2511Z

Waarnemingen en weersverwachtingen van meer dan 4000 vliegvelden (METAR en TAF).

De beschikbare stations zijn de gele en rode punten op de kaart.

Ga met uw muis naar het station om de naam te zien.

Klik dan om waarnemingen en weersverwachtingen te zien.

kaart wijzigen: klik op de groene knoppen met een zwart kruis om in te zoomen, op de groene knop met een streepje om uit te zoomen of op de groene pijlen voor aangrenzende kaarten.


METAR-TAF: